sensor_id;sensor_type;location;lat;lon;timestamp;P1;durP1;ratioP1;P2;durP2;ratioP2
52620;SDS011;38515;53.160;6.990;2023-09-30T00:02:16;521.33;;;485.00;;
52620;SDS011;38515;53.160;6.990;2023-09-30T00:04:42;552.22;;;512.75;;
52620;SDS011;38515;53.160;6.990;2023-09-30T00:07:08;587.03;;;544.25;;
52620;SDS011;38515;53.160;6.990;2023-09-30T00:09:34;538.08;;;499.77;;
52620;SDS011;38515;53.160;6.990;2023-09-30T00:12:00;524.03;;;487.77;;
52620;SDS011;38515;53.160;6.990;2023-09-30T00:14:26;452.30;;;422.52;;
52620;SDS011;38515;53.160;6.990;2023-09-30T00:16:53;381.13;;;356.75;;
52620;SDS011;38515;53.160;6.990;2023-09-30T00:19:19;518.85;;;482.63;;
52620;SDS011;38515;53.160;6.990;2023-09-30T00:21:47;571.95;;;531.47;;
52620;SDS011;38515;53.160;6.990;2023-09-30T00:24:16;551.83;;;512.63;;
52620;SDS011;38515;53.160;6.990;2023-09-30T00:26:42;364.70;;;341.60;;
52620;SDS011;38515;53.160;6.990;2023-09-30T00:29:08;428.27;;;398.60;;
52620;SDS011;38515;53.160;6.990;2023-09-30T00:31:35;468.42;;;436.35;;
52620;SDS011;38515;53.160;6.990;2023-09-30T00:34:01;411.75;;;383.27;;
52620;SDS011;38515;53.160;6.990;2023-09-30T00:36:27;483.13;;;450.17;;
52620;SDS011;38515;53.160;6.990;2023-09-30T00:38:53;532.22;;;496.05;;
52620;SDS011;38515;53.160;6.990;2023-09-30T00:41:19;543.60;;;504.67;;
52620;SDS011;38515;53.160;6.990;2023-09-30T00:43:47;586.83;;;542.85;;
52620;SDS011;38515;53.160;6.990;2023-09-30T00:48:53;537.40;;;496.55;;
52620;SDS011;38515;53.160;6.990;2023-09-30T00:51:21;565.20;;;522.22;;
52620;SDS011;38515;53.160;6.990;2023-09-30T00:53:47;412.50;;;384.95;;
52620;SDS011;38515;53.160;6.990;2023-09-30T00:56:17;501.02;;;466.77;;
52620;SDS011;38515;53.160;6.990;2023-09-30T00:58:51;634.45;;;586.72;;
52620;SDS011;38515;53.160;6.990;2023-09-30T01:01:17;469.30;;;438.27;;
52620;SDS011;38515;53.160;6.990;2023-09-30T01:03:45;412.10;;;384.50;;
52620;SDS011;38515;53.160;6.990;2023-09-30T01:06:12;436.67;;;404.48;;
52620;SDS011;38515;53.160;6.990;2023-09-30T01:08:37;435.63;;;406.67;;
52620;SDS011;38515;53.160;6.990;2023-09-30T01:11:04;537.75;;;499.77;;
52620;SDS011;38515;53.160;6.990;2023-09-30T01:13:34;517.15;;;480.30;;
52620;SDS011;38515;53.160;6.990;2023-09-30T01:16:07;545.60;;;505.83;;
52620;SDS011;38515;53.160;6.990;2023-09-30T01:18:35;559.10;;;518.00;;
52620;SDS011;38515;53.160;6.990;2023-09-30T01:21:05;364.65;;;340.90;;
52620;SDS011;38515;53.160;6.990;2023-09-30T01:23:34;440.13;;;411.27;;
52620;SDS011;38515;53.160;6.990;2023-09-30T01:26:10;584.95;;;541.42;;
52620;SDS011;38515;53.160;6.990;2023-09-30T01:28:40;601.75;;;555.83;;
52620;SDS011;38515;53.160;6.990;2023-09-30T01:31:06;585.13;;;541.08;;
52620;SDS011;38515;53.160;6.990;2023-09-30T01:33:32;641.72;;;593.00;;
52620;SDS011;38515;53.160;6.990;2023-09-30T01:35:58;642.97;;;593.60;;
52620;SDS011;38515;53.160;6.990;2023-09-30T01:38:25;515.75;;;480.17;;
52620;SDS011;38515;53.160;6.990;2023-09-30T01:40:51;448.92;;;417.75;;
52620;SDS011;38515;53.160;6.990;2023-09-30T01:43:19;390.70;;;364.38;;
52620;SDS011;38515;53.160;6.990;2023-09-30T01:45:45;364.42;;;338.88;;
52620;SDS011;38515;53.160;6.990;2023-09-30T01:48:11;447.30;;;415.63;;
52620;SDS011;38515;53.160;6.990;2023-09-30T01:50:37;415.50;;;384.70;;
52620;SDS011;38515;53.160;6.990;2023-09-30T01:53:04;554.15;;;512.47;;
52620;SDS011;38515;53.160;6.990;2023-09-30T01:55:32;451.77;;;420.08;;
52620;SDS011;38515;53.160;6.990;2023-09-30T01:57:58;489.92;;;454.88;;
52620;SDS011;38515;53.160;6.990;2023-09-30T02:00:24;460.70;;;429.02;;
52620;SDS011;38515;53.160;6.990;2023-09-30T02:02:50;475.17;;;440.25;;
52620;SDS011;38515;53.160;6.990;2023-09-30T02:05:16;413.20;;;383.02;;
52620;SDS011;38515;53.160;6.990;2023-09-30T02:07:42;589.10;;;544.78;;
52620;SDS011;38515;53.160;6.990;2023-09-30T02:10:08;603.22;;;558.35;;
52620;SDS011;38515;53.160;6.990;2023-09-30T02:12:35;613.30;;;565.08;;
52620;SDS011;38515;53.160;6.990;2023-09-30T02:15:02;459.67;;;428.73;;
52620;SDS011;38515;53.160;6.990;2023-09-30T02:17:29;405.25;;;376.70;;
52620;SDS011;38515;53.160;6.990;2023-09-30T02:19:55;498.90;;;461.20;;
52620;SDS011;38515;53.160;6.990;2023-09-30T02:22:21;458.15;;;423.42;;
52620;SDS011;38515;53.160;6.990;2023-09-30T02:24:46;572.85;;;530.22;;
52620;SDS011;38515;53.160;6.990;2023-09-30T02:27:13;516.20;;;477.17;;
52620;SDS011;38515;53.160;6.990;2023-09-30T02:29:39;548.53;;;506.40;;
52620;SDS011;38515;53.160;6.990;2023-09-30T02:32:05;573.80;;;530.00;;
52620;SDS011;38515;53.160;6.990;2023-09-30T02:34:31;489.60;;;452.95;;
52620;SDS011;38515;53.160;6.990;2023-09-30T02:36:56;619.22;;;572.30;;
52620;SDS011;38515;53.160;6.990;2023-09-30T02:39:25;673.08;;;621.35;;
52620;SDS011;38515;53.160;6.990;2023-09-30T02:41:51;565.95;;;524.00;;
52620;SDS011;38515;53.160;6.990;2023-09-30T02:44:17;598.17;;;550.53;;
52620;SDS011;38515;53.160;6.990;2023-09-30T02:46:44;650.80;;;601.55;;
52620;SDS011;38515;53.160;6.990;2023-09-30T02:49:10;576.97;;;533.95;;
52620;SDS011;38515;53.160;6.990;2023-09-30T02:51:35;540.22;;;496.90;;
52620;SDS011;38515;53.160;6.990;2023-09-30T02:54:02;610.30;;;561.42;;
52620;SDS011;38515;53.160;6.990;2023-09-30T02:56:28;678.20;;;623.28;;
52620;SDS011;38515;53.160;6.990;2023-09-30T02:58:56;612.10;;;564.67;;
52620;SDS011;38515;53.160;6.990;2023-09-30T03:01:23;448.35;;;417.02;;
52620;SDS011;38515;53.160;6.990;2023-09-30T03:03:48;393.35;;;366.40;;
52620;SDS011;38515;53.160;6.990;2023-09-30T03:06:15;572.95;;;527.95;;
52620;SDS011;38515;53.160;6.990;2023-09-30T03:08:41;690.10;;;637.97;;
52620;SDS011;38515;53.160;6.990;2023-09-30T03:11:06;644.55;;;594.97;;
52620;SDS011;38515;53.160;6.990;2023-09-30T03:13:33;571.63;;;528.85;;
52620;SDS011;38515;53.160;6.990;2023-09-30T03:15:58;555.67;;;513.70;;
52620;SDS011;38515;53.160;6.990;2023-09-30T03:18:26;503.50;;;464.40;;
52620;SDS011;38515;53.160;6.990;2023-09-30T03:20:57;514.53;;;475.80;;
52620;SDS011;38515;53.160;6.990;2023-09-30T03:23:33;546.03;;;505.15;;
52620;SDS011;38515;53.160;6.990;2023-09-30T03:26:00;543.97;;;500.95;;
52620;SDS011;38515;53.160;6.990;2023-09-30T03:28:26;597.50;;;552.97;;
52620;SDS011;38515;53.160;6.990;2023-09-30T03:30:52;546.05;;;504.23;;
52620;SDS011;38515;53.160;6.990;2023-09-30T03:33:21;551.75;;;509.00;;
52620;SDS011;38515;53.160;6.990;2023-09-30T03:35:47;546.78;;;505.50;;
52620;SDS011;38515;53.160;6.990;2023-09-30T03:38:14;636.95;;;584.83;;
52620;SDS011;38515;53.160;6.990;2023-09-30T03:40:42;622.72;;;573.10;;
52620;SDS011;38515;53.160;6.990;2023-09-30T03:43:13;578.28;;;532.63;;
52620;SDS011;38515;53.160;6.990;2023-09-30T03:45:39;603.33;;;556.53;;
52620;SDS011;38515;53.160;6.990;2023-09-30T03:48:06;631.10;;;583.20;;
52620;SDS011;38515;53.160;6.990;2023-09-30T03:50:32;536.30;;;496.02;;
52620;SDS011;38515;53.160;6.990;2023-09-30T03:53:02;666.78;;;613.50;;
52620;SDS011;38515;53.160;6.990;2023-09-30T03:55:30;644.30;;;592.85;;
52620;SDS011;38515;53.160;6.990;2023-09-30T03:57:57;642.00;;;590.60;;
52620;SDS011;38515;53.160;6.990;2023-09-30T04:00:23;581.38;;;535.40;;
52620;SDS011;38515;53.160;6.990;2023-09-30T04:02:50;611.97;;;562.33;;
52620;SDS011;38515;53.160;6.990;2023-09-30T04:05:20;645.72;;;595.03;;
52620;SDS011;38515;53.160;6.990;2023-09-30T04:07:51;619.30;;;571.30;;
52620;SDS011;38515;53.160;6.990;2023-09-30T04:10:17;622.58;;;573.13;;
52620;SDS011;38515;53.160;6.990;2023-09-30T04:12:44;521.65;;;484.42;;
52620;SDS011;38515;53.160;6.990;2023-09-30T04:15:10;568.55;;;525.97;;
52620;SDS011;38515;53.160;6.990;2023-09-30T04:17:37;473.95;;;440.02;;
52620;SDS011;38515;53.160;6.990;2023-09-30T04:20:05;558.78;;;516.65;;
52620;SDS011;38515;53.160;6.990;2023-09-30T04:22:35;485.70;;;449.55;;
52620;SDS011;38515;53.160;6.990;2023-09-30T04:25:01;608.13;;;562.10;;
52620;SDS011;38515;53.160;6.990;2023-09-30T04:27:33;501.15;;;463.48;;
52620;SDS011;38515;53.160;6.990;2023-09-30T04:29:59;489.58;;;452.88;;
52620;SDS011;38515;53.160;6.990;2023-09-30T04:32:25;533.65;;;494.52;;
52620;SDS011;38515;53.160;6.990;2023-09-30T04:34:52;528.20;;;489.75;;
52620;SDS011;38515;53.160;6.990;2023-09-30T04:37:18;600.00;;;554.30;;
52620;SDS011;38515;53.160;6.990;2023-09-30T04:39:44;641.20;;;591.70;;
52620;SDS011;38515;53.160;6.990;2023-09-30T04:42:10;628.45;;;578.25;;
52620;SDS011;38515;53.160;6.990;2023-09-30T04:44:37;590.00;;;542.67;;
52620;SDS011;38515;53.160;6.990;2023-09-30T04:47:03;656.67;;;605.45;;
52620;SDS011;38515;53.160;6.990;2023-09-30T04:49:30;618.75;;;570.60;;
52620;SDS011;38515;53.160;6.990;2023-09-30T04:51:56;634.95;;;584.45;;
52620;SDS011;38515;53.160;6.990;2023-09-30T04:54:21;609.50;;;563.20;;
52620;SDS011;38515;53.160;6.990;2023-09-30T04:56:47;587.20;;;542.90;;
52620;SDS011;38515;53.160;6.990;2023-09-30T04:59:13;636.17;;;586.78;;
52620;SDS011;38515;53.160;6.990;2023-09-30T05:01:39;645.28;;;595.15;;
52620;SDS011;38515;53.160;6.990;2023-09-30T05:04:05;623.78;;;573.80;;
52620;SDS011;38515;53.160;6.990;2023-09-30T05:06:31;582.05;;;537.15;;
52620;SDS011;38515;53.160;6.990;2023-09-30T05:08:58;600.92;;;553.97;;
52620;SDS011;38515;53.160;6.990;2023-09-30T05:11:24;643.53;;;592.40;;
52620;SDS011;38515;53.160;6.990;2023-09-30T05:13:50;608.25;;;559.22;;
52620;SDS011;38515;53.160;6.990;2023-09-30T05:16:16;525.05;;;490.25;;
52620;SDS011;38515;53.160;6.990;2023-09-30T05:18:43;644.15;;;591.63;;
52620;SDS011;38515;53.160;6.990;2023-09-30T05:21:09;522.33;;;482.83;;
52620;SDS011;38515;53.160;6.990;2023-09-30T05:23:36;541.03;;;500.48;;
52620;SDS011;38515;53.160;6.990;2023-09-30T05:26:03;556.97;;;512.53;;
52620;SDS011;38515;53.160;6.990;2023-09-30T05:28:29;561.88;;;520.08;;
52620;SDS011;38515;53.160;6.990;2023-09-30T05:30:56;580.95;;;534.63;;
52620;SDS011;38515;53.160;6.990;2023-09-30T05:33:22;598.08;;;552.58;;
52620;SDS011;38515;53.160;6.990;2023-09-30T05:35:48;530.20;;;489.20;;
52620;SDS011;38515;53.160;6.990;2023-09-30T05:38:15;550.40;;;508.15;;
52620;SDS011;38515;53.160;6.990;2023-09-30T05:40:42;531.13;;;490.83;;
52620;SDS011;38515;53.160;6.990;2023-09-30T05:43:08;570.72;;;526.95;;
52620;SDS011;38515;53.160;6.990;2023-09-30T05:45:34;579.67;;;535.22;;
52620;SDS011;38515;53.160;6.990;2023-09-30T05:48:01;578.70;;;534.92;;
52620;SDS011;38515;53.160;6.990;2023-09-30T05:50:31;560.95;;;519.75;;
52620;SDS011;38515;53.160;6.990;2023-09-30T05:53:02;549.40;;;506.48;;
52620;SDS011;38515;53.160;6.990;2023-09-30T05:55:29;651.38;;;602.03;;
52620;SDS011;38515;53.160;6.990;2023-09-30T05:57:55;689.13;;;634.58;;
52620;SDS011;38515;53.160;6.990;2023-09-30T06:00:22;647.20;;;596.65;;
52620;SDS011;38515;53.160;6.990;2023-09-30T06:02:49;545.42;;;503.73;;
52620;SDS011;38515;53.160;6.990;2023-09-30T06:05:16;587.33;;;542.03;;
52620;SDS011;38515;53.160;6.990;2023-09-30T06:07:47;627.55;;;579.50;;
52620;SDS011;38515;53.160;6.990;2023-09-30T06:10:13;685.97;;;631.67;;
52620;SDS011;38515;53.160;6.990;2023-09-30T06:12:47;592.20;;;544.78;;
52620;SDS011;38515;53.160;6.990;2023-09-30T06:15:17;574.75;;;530.20;;
52620;SDS011;38515;53.160;6.990;2023-09-30T06:17:49;627.88;;;573.60;;
52620;SDS011;38515;53.160;6.990;2023-09-30T06:20:16;555.42;;;510.77;;
52620;SDS011;38515;53.160;6.990;2023-09-30T06:22:45;519.95;;;479.05;;
52620;SDS011;38515;53.160;6.990;2023-09-30T06:25:14;540.63;;;497.25;;
52620;SDS011;38515;53.160;6.990;2023-09-30T06:27:45;539.33;;;497.67;;
52620;SDS011;38515;53.160;6.990;2023-09-30T06:30:12;581.30;;;533.58;;
52620;SDS011;38515;53.160;6.990;2023-09-30T06:32:39;535.22;;;493.20;;
52620;SDS011;38515;53.160;6.990;2023-09-30T06:35:05;458.13;;;422.63;;
52620;SDS011;38515;53.160;6.990;2023-09-30T06:37:32;534.60;;;492.90;;
52620;SDS011;38515;53.160;6.990;2023-09-30T06:40:01;536.45;;;494.30;;
52620;SDS011;38515;53.160;6.990;2023-09-30T06:42:30;572.42;;;529.17;;
52620;SDS011;38515;53.160;6.990;2023-09-30T06:44:56;545.97;;;504.15;;
52620;SDS011;38515;53.160;6.990;2023-09-30T06:47:22;501.25;;;463.52;;
52620;SDS011;38515;53.160;6.990;2023-09-30T06:49:49;576.53;;;531.05;;
52620;SDS011;38515;53.160;6.990;2023-09-30T06:52:15;448.67;;;418.10;;
52620;SDS011;38515;53.160;6.990;2023-09-30T06:54:40;543.08;;;503.70;;
52620;SDS011;38515;53.160;6.990;2023-09-30T06:57:06;454.48;;;421.95;;
52620;SDS011;38515;53.160;6.990;2023-09-30T06:59:33;537.90;;;499.17;;
52620;SDS011;38515;53.160;6.990;2023-09-30T07:01:59;592.95;;;550.35;;
52620;SDS011;38515;53.160;6.990;2023-09-30T07:04:25;545.60;;;505.05;;
52620;SDS011;38515;53.160;6.990;2023-09-30T07:06:54;571.00;;;526.35;;
52620;SDS011;38515;53.160;6.990;2023-09-30T07:09:20;491.45;;;456.48;;
52620;SDS011;38515;53.160;6.990;2023-09-30T07:11:46;603.40;;;554.63;;
52620;SDS011;38515;53.160;6.990;2023-09-30T07:14:14;500.05;;;462.65;;
52620;SDS011;38515;53.160;6.990;2023-09-30T07:16:40;598.78;;;548.75;;
52620;SDS011;38515;53.160;6.990;2023-09-30T07:19:06;630.72;;;578.40;;
52620;SDS011;38515;53.160;6.990;2023-09-30T07:21:32;584.00;;;535.30;;
52620;SDS011;38515;53.160;6.990;2023-09-30T07:23:58;676.75;;;623.10;;
52620;SDS011;38515;53.160;6.990;2023-09-30T07:26:24;651.63;;;602.45;;
52620;SDS011;38515;53.160;6.990;2023-09-30T07:28:50;494.35;;;458.08;;
52620;SDS011;38515;53.160;6.990;2023-09-30T07:31:16;516.80;;;478.77;;
52620;SDS011;38515;53.160;6.990;2023-09-30T07:33:42;499.33;;;464.15;;
52620;SDS011;38515;53.160;6.990;2023-09-30T07:36:08;561.42;;;517.50;;
52620;SDS011;38515;53.160;6.990;2023-09-30T07:38:34;522.10;;;481.83;;
52620;SDS011;38515;53.160;6.990;2023-09-30T07:41:00;501.38;;;465.60;;
52620;SDS011;38515;53.160;6.990;2023-09-30T07:43:28;429.23;;;399.63;;
52620;SDS011;38515;53.160;6.990;2023-09-30T07:45:54;466.10;;;434.35;;
52620;SDS011;38515;53.160;6.990;2023-09-30T07:48:20;506.65;;;471.55;;
52620;SDS011;38515;53.160;6.990;2023-09-30T07:50:45;361.55;;;337.23;;
52620;SDS011;38515;53.160;6.990;2023-09-30T07:53:12;413.38;;;386.13;;
52620;SDS011;38515;53.160;6.990;2023-09-30T07:55:38;463.75;;;433.88;;
52620;SDS011;38515;53.160;6.990;2023-09-30T07:58:04;425.50;;;397.67;;
52620;SDS011;38515;53.160;6.990;2023-09-30T08:00:33;535.83;;;499.42;;
52620;SDS011;38515;53.160;6.990;2023-09-30T08:02:59;465.33;;;433.55;;
52620;SDS011;38515;53.160;6.990;2023-09-30T08:05:27;377.98;;;354.10;;
52620;SDS011;38515;53.160;6.990;2023-09-30T08:07:53;436.00;;;404.83;;
52620;SDS011;38515;53.160;6.990;2023-09-30T08:10:19;410.75;;;382.55;;
52620;SDS011;38515;53.160;6.990;2023-09-30T08:12:45;455.02;;;425.85;;
52620;SDS011;38515;53.160;6.990;2023-09-30T08:15:13;483.58;;;450.65;;
52620;SDS011;38515;53.160;6.990;2023-09-30T08:17:39;415.83;;;388.52;;
52620;SDS011;38515;53.160;6.990;2023-09-30T08:20:06;507.52;;;471.15;;
52620;SDS011;38515;53.160;6.990;2023-09-30T08:22:33;367.33;;;346.23;;
52620;SDS011;38515;53.160;6.990;2023-09-30T08:24:59;364.80;;;344.42;;
52620;SDS011;38515;53.160;6.990;2023-09-30T08:27:25;320.30;;;302.92;;
52620;SDS011;38515;53.160;6.990;2023-09-30T08:29:51;356.48;;;336.75;;
52620;SDS011;38515;53.160;6.990;2023-09-30T08:32:17;365.85;;;345.73;;
52620;SDS011;38515;53.160;6.990;2023-09-30T08:34:43;353.70;;;332.63;;
52620;SDS011;38515;53.160;6.990;2023-09-30T08:37:09;375.67;;;354.38;;
52620;SDS011;38515;53.160;6.990;2023-09-30T08:39:39;387.60;;;366.30;;
52620;SDS011;38515;53.160;6.990;2023-09-30T08:42:11;276.02;;;259.38;;
52620;SDS011;38515;53.160;6.990;2023-09-30T08:44:43;380.33;;;359.90;;
52620;SDS011;38515;53.160;6.990;2023-09-30T08:47:09;304.08;;;287.25;;
52620;SDS011;38515;53.160;6.990;2023-09-30T08:49:42;204.68;;;193.05;;
52620;SDS011;38515;53.160;6.990;2023-09-30T08:52:09;217.00;;;203.95;;
52620;SDS011;38515;53.160;6.990;2023-09-30T08:54:37;210.30;;;199.10;;
52620;SDS011;38515;53.160;6.990;2023-09-30T08:57:03;282.13;;;266.60;;
52620;SDS011;38515;53.160;6.990;2023-09-30T08:59:31;333.63;;;313.83;;
52620;SDS011;38515;53.160;6.990;2023-09-30T09:02:00;340.27;;;319.50;;
52620;SDS011;38515;53.160;6.990;2023-09-30T09:04:26;245.60;;;231.98;;
52620;SDS011;38515;53.160;6.990;2023-09-30T09:06:55;362.30;;;339.48;;
52620;SDS011;38515;53.160;6.990;2023-09-30T09:09:21;281.00;;;265.33;;
52620;SDS011;38515;53.160;6.990;2023-09-30T09:11:47;342.02;;;320.90;;
52620;SDS011;38515;53.160;6.990;2023-09-30T09:14:13;457.55;;;426.77;;
52620;SDS011;38515;53.160;6.990;2023-09-30T09:16:55;445.98;;;414.90;;
52620;SDS011;38515;53.160;6.990;2023-09-30T09:19:21;258.55;;;244.90;;
52620;SDS011;38515;53.160;6.990;2023-09-30T09:21:58;250.20;;;236.77;;
52620;SDS011;38515;53.160;6.990;2023-09-30T09:24:28;224.50;;;212.43;;
52620;SDS011;38515;53.160;6.990;2023-09-30T09:27:05;127.30;;;121.15;;
52620;SDS011;38515;53.160;6.990;2023-09-30T09:29:41;152.18;;;144.43;;
52620;SDS011;38515;53.160;6.990;2023-09-30T09:32:10;170.60;;;161.07;;
52620;SDS011;38515;53.160;6.990;2023-09-30T09:34:40;254.95;;;241.70;;
52620;SDS011;38515;53.160;6.990;2023-09-30T09:37:18;167.80;;;159.45;;
52620;SDS011;38515;53.160;6.990;2023-09-30T09:39:55;182.98;;;174.60;;
52620;SDS011;38515;53.160;6.990;2023-09-30T09:42:26;200.55;;;190.60;;
52620;SDS011;38515;53.160;6.990;2023-09-30T09:44:54;177.35;;;168.18;;
52620;SDS011;38515;53.160;6.990;2023-09-30T09:47:23;223.82;;;212.90;;
52620;SDS011;38515;53.160;6.990;2023-09-30T09:49:50;169.77;;;161.65;;
52620;SDS011;38515;53.160;6.990;2023-09-30T09:52:18;132.35;;;125.85;;
52620;SDS011;38515;53.160;6.990;2023-09-30T09:54:45;174.25;;;164.90;;
52620;SDS011;38515;53.160;6.990;2023-09-30T09:57:12;171.20;;;162.60;;
52620;SDS011;38515;53.160;6.990;2023-09-30T09:59:39;253.52;;;240.73;;
52620;SDS011;38515;53.160;6.990;2023-09-30T10:02:09;222.98;;;212.18;;
52620;SDS011;38515;53.160;6.990;2023-09-30T10:04:37;213.65;;;202.98;;
52620;SDS011;38515;53.160;6.990;2023-09-30T10:07:03;168.50;;;159.30;;
52620;SDS011;38515;53.160;6.990;2023-09-30T10:09:32;231.02;;;218.85;;
52620;SDS011;38515;53.160;6.990;2023-09-30T10:12:00;174.55;;;166.02;;
52620;SDS011;38515;53.160;6.990;2023-09-30T10:14:30;178.75;;;170.15;;
52620;SDS011;38515;53.160;6.990;2023-09-30T10:17:01;155.38;;;147.90;;
52620;SDS011;38515;53.160;6.990;2023-09-30T10:19:28;160.63;;;152.65;;
52620;SDS011;38515;53.160;6.990;2023-09-30T10:24:42;195.55;;;185.63;;
52620;SDS011;38515;53.160;6.990;2023-09-30T10:41:03;255.55;;;243.98;;
52620;SDS011;38515;53.160;6.990;2023-09-30T10:43:33;209.00;;;198.38;;
52620;SDS011;38515;53.160;6.990;2023-09-30T10:48:54;217.05;;;205.93;;
52620;SDS011;38515;53.160;6.990;2023-09-30T10:51:21;253.02;;;239.98;;
52620;SDS011;38515;53.160;6.990;2023-09-30T10:53:48;182.85;;;173.07;;
52620;SDS011;38515;53.160;6.990;2023-09-30T10:56:21;212.85;;;201.82;;
52620;SDS011;38515;53.160;6.990;2023-09-30T11:01:15;252.65;;;240.98;;
52620;SDS011;38515;53.160;6.990;2023-09-30T11:03:46;191.90;;;182.65;;
52620;SDS011;38515;53.160;6.990;2023-09-30T11:06:15;170.00;;;162.32;;
52620;SDS011;38515;53.160;6.990;2023-09-30T11:08:50;201.43;;;191.93;;
52620;SDS011;38515;53.160;6.990;2023-09-30T11:11:18;172.52;;;164.05;;
52620;SDS011;38515;53.160;6.990;2023-09-30T11:13:43;187.75;;;178.00;;
52620;SDS011;38515;53.160;6.990;2023-09-30T11:16:10;226.27;;;214.82;;
52620;SDS011;38515;53.160;6.990;2023-09-30T11:18:36;171.52;;;163.15;;
52620;SDS011;38515;53.160;6.990;2023-09-30T11:21:09;247.88;;;235.15;;
52620;SDS011;38515;53.160;6.990;2023-09-30T11:23:40;179.63;;;170.13;;
52620;SDS011;38515;53.160;6.990;2023-09-30T11:26:06;236.40;;;225.10;;
52620;SDS011;38515;53.160;6.990;2023-09-30T11:28:39;258.98;;;245.20;;
52620;SDS011;38515;53.160;6.990;2023-09-30T11:31:07;180.88;;;172.32;;
52620;SDS011;38515;53.160;6.990;2023-09-30T11:33:51;206.07;;;195.48;;
52620;SDS011;38515;53.160;6.990;2023-09-30T11:36:23;196.30;;;185.68;;
52620;SDS011;38515;53.160;6.990;2023-09-30T11:38:50;237.55;;;225.95;;
52620;SDS011;38515;53.160;6.990;2023-09-30T11:41:17;173.40;;;163.80;;
52620;SDS011;38515;53.160;6.990;2023-09-30T11:44:06;196.98;;;188.13;;
52620;SDS011;38515;53.160;6.990;2023-09-30T11:46:51;188.05;;;177.70;;
52620;SDS011;38515;53.160;6.990;2023-09-30T11:51:58;147.20;;;140.18;;
52620;SDS011;38515;53.160;6.990;2023-09-30T11:54:44;268.27;;;254.82;;
52620;SDS011;38515;53.160;6.990;2023-09-30T11:57:12;96.03;;;91.20;;
52620;SDS011;38515;53.160;6.990;2023-09-30T11:59:42;84.80;;;80.43;;
52620;SDS011;38515;53.160;6.990;2023-09-30T12:02:09;252.57;;;238.90;;
52620;SDS011;38515;53.160;6.990;2023-09-30T12:04:36;117.47;;;112.47;;
52620;SDS011;38515;53.160;6.990;2023-09-30T12:07:02;83.32;;;79.38;;
52620;SDS011;38515;53.160;6.990;2023-09-30T12:09:31;125.18;;;119.28;;
52620;SDS011;38515;53.160;6.990;2023-09-30T12:11:57;126.90;;;121.15;;
52620;SDS011;38515;53.160;6.990;2023-09-30T12:14:25;102.03;;;97.22;;
52620;SDS011;38515;53.160;6.990;2023-09-30T12:16:51;134.10;;;127.55;;
52620;SDS011;38515;53.160;6.990;2023-09-30T12:19:17;180.73;;;170.57;;
52620;SDS011;38515;53.160;6.990;2023-09-30T12:21:44;123.50;;;117.68;;
52620;SDS011;38515;53.160;6.990;2023-09-30T12:24:12;61.67;;;58.45;;
52620;SDS011;38515;53.160;6.990;2023-09-30T12:26:45;64.55;;;61.45;;
52620;SDS011;38515;53.160;6.990;2023-09-30T12:29:18;87.15;;;82.88;;
52620;SDS011;38515;53.160;6.990;2023-09-30T12:31:45;95.53;;;91.07;;
52620;SDS011;38515;53.160;6.990;2023-09-30T12:34:11;179.63;;;170.70;;
52620;SDS011;38515;53.160;6.990;2023-09-30T12:36:38;147.27;;;139.60;;
52620;SDS011;38515;53.160;6.990;2023-09-30T12:39:04;279.73;;;266.00;;
52620;SDS011;38515;53.160;6.990;2023-09-30T12:41:37;230.65;;;219.38;;
52620;SDS011;38515;53.160;6.990;2023-09-30T12:44:03;265.80;;;252.80;;
52620;SDS011;38515;53.160;6.990;2023-09-30T12:46:29;246.30;;;233.88;;
52620;SDS011;38515;53.160;6.990;2023-09-30T12:48:56;174.85;;;166.23;;
52620;SDS011;38515;53.160;6.990;2023-09-30T12:51:22;218.32;;;207.32;;
52620;SDS011;38515;53.160;6.990;2023-09-30T12:53:48;225.02;;;214.48;;
52620;SDS011;38515;53.160;6.990;2023-09-30T12:56:14;199.88;;;190.20;;
52620;SDS011;38515;53.160;6.990;2023-09-30T12:58:40;155.90;;;147.73;;
52620;SDS011;38515;53.160;6.990;2023-09-30T13:01:06;179.30;;;171.05;;
52620;SDS011;38515;53.160;6.990;2023-09-30T13:03:32;77.65;;;74.20;;
52620;SDS011;38515;53.160;6.990;2023-09-30T13:05:59;135.23;;;129.18;;
52620;SDS011;38515;53.160;6.990;2023-09-30T13:08:26;170.05;;;162.00;;
52620;SDS011;38515;53.160;6.990;2023-09-30T13:10:52;277.15;;;263.17;;
52620;SDS011;38515;53.160;6.990;2023-09-30T13:13:17;227.10;;;214.60;;
52620;SDS011;38515;53.160;6.990;2023-09-30T13:15:43;268.92;;;255.75;;
52620;SDS011;38515;53.160;6.990;2023-09-30T13:18:09;270.63;;;257.63;;
52620;SDS011;38515;53.160;6.990;2023-09-30T13:20:35;240.88;;;228.63;;
52620;SDS011;38515;53.160;6.990;2023-09-30T13:23:01;219.02;;;207.45;;
52620;SDS011;38515;53.160;6.990;2023-09-30T13:25:28;244.88;;;232.32;;
52620;SDS011;38515;53.160;6.990;2023-09-30T13:27:55;255.70;;;242.82;;
52620;SDS011;38515;53.160;6.990;2023-09-30T13:30:20;132.27;;;126.10;;
52620;SDS011;38515;53.160;6.990;2023-09-30T13:32:48;157.23;;;149.88;;
52620;SDS011;38515;53.160;6.990;2023-09-30T13:35:13;181.27;;;172.45;;
52620;SDS011;38515;53.160;6.990;2023-09-30T13:37:40;147.90;;;141.10;;
52620;SDS011;38515;53.160;6.990;2023-09-30T13:40:06;259.38;;;246.55;;
52620;SDS011;38515;53.160;6.990;2023-09-30T13:42:37;285.52;;;271.67;;
52620;SDS011;38515;53.160;6.990;2023-09-30T13:45:02;227.43;;;215.82;;
52620;SDS011;38515;53.160;6.990;2023-09-30T13:47:28;261.23;;;248.68;;
52620;SDS011;38515;53.160;6.990;2023-09-30T13:49:54;301.08;;;284.95;;
52620;SDS011;38515;53.160;6.990;2023-09-30T13:52:20;162.02;;;154.77;;
52620;SDS011;38515;53.160;6.990;2023-09-30T13:54:46;159.20;;;151.18;;
52620;SDS011;38515;53.160;6.990;2023-09-30T13:57:12;132.10;;;125.82;;
52620;SDS011;38515;53.160;6.990;2023-09-30T13:59:39;229.85;;;218.60;;
52620;SDS011;38515;53.160;6.990;2023-09-30T14:02:07;210.10;;;200.15;;
52620;SDS011;38515;53.160;6.990;2023-09-30T14:04:33;182.05;;;172.80;;
52620;SDS011;38515;53.160;6.990;2023-09-30T14:07:00;112.13;;;106.45;;
52620;SDS011;38515;53.160;6.990;2023-09-30T14:09:28;199.40;;;189.65;;
52620;SDS011;38515;53.160;6.990;2023-09-30T14:11:54;297.13;;;281.25;;
52620;SDS011;38515;53.160;6.990;2023-09-30T14:14:20;67.22;;;64.07;;
52620;SDS011;38515;53.160;6.990;2023-09-30T14:16:46;80.15;;;76.20;;
52620;SDS011;38515;53.160;6.990;2023-09-30T14:19:12;82.03;;;78.22;;
52620;SDS011;38515;53.160;6.990;2023-09-30T14:21:39;103.63;;;98.72;;
52620;SDS011;38515;53.160;6.990;2023-09-30T14:24:09;130.73;;;124.80;;
52620;SDS011;38515;53.160;6.990;2023-09-30T14:26:36;121.90;;;116.13;;
52620;SDS011;38515;53.160;6.990;2023-09-30T14:29:01;79.25;;;75.57;;